sensor_id;sensor_type;location;lat;lon;timestamp;temperature;humidity
30148;DHT22;16960;49.404;8.248;2023-05-16T00:00:59;22.30;46.60
30148;DHT22;16960;49.404;8.248;2023-05-16T00:03:27;22.30;46.60
30148;DHT22;16960;49.404;8.248;2023-05-16T00:05:56;22.30;46.70
30148;DHT22;16960;49.404;8.248;2023-05-16T00:08:23;22.30;46.60
30148;DHT22;16960;49.404;8.248;2023-05-16T00:10:51;22.30;46.60
30148;DHT22;16960;49.404;8.248;2023-05-16T00:13:18;22.30;46.60
30148;DHT22;16960;49.404;8.248;2023-05-16T00:15:47;22.30;46.60
30148;DHT22;16960;49.404;8.248;2023-05-16T00:18:14;22.30;46.60
30148;DHT22;16960;49.404;8.248;2023-05-16T00:20:41;22.30;46.60
30148;DHT22;16960;49.404;8.248;2023-05-16T00:23:09;22.20;46.50
30148;DHT22;16960;49.404;8.248;2023-05-16T00:25:37;22.20;46.50
30148;DHT22;16960;49.404;8.248;2023-05-16T00:28:05;22.20;46.50
30148;DHT22;16960;49.404;8.248;2023-05-16T00:30:32;22.20;46.60
30148;DHT22;16960;49.404;8.248;2023-05-16T00:32:59;22.20;46.70
30148;DHT22;16960;49.404;8.248;2023-05-16T00:35:27;22.20;46.80
30148;DHT22;16960;49.404;8.248;2023-05-16T00:58:06;22.20;46.90
30148;DHT22;16960;49.404;8.248;2023-05-16T01:00:34;22.20;46.80
30148;DHT22;16960;49.404;8.248;2023-05-16T01:03:03;22.20;46.80
30148;DHT22;16960;49.404;8.248;2023-05-16T01:05:31;22.20;46.80
30148;DHT22;16960;49.404;8.248;2023-05-16T01:08:06;22.10;46.80
30148;DHT22;16960;49.404;8.248;2023-05-16T01:10:38;22.10;46.80
30148;DHT22;16960;49.404;8.248;2023-05-16T01:13:16;22.10;46.80
30148;DHT22;16960;49.404;8.248;2023-05-16T01:15:49;22.10;46.80
30148;DHT22;16960;49.404;8.248;2023-05-16T01:18:22;22.10;46.80
30148;DHT22;16960;49.404;8.248;2023-05-16T01:20:55;22.10;46.70
30148;DHT22;16960;49.404;8.248;2023-05-16T01:23:42;22.10;46.70
30148;DHT22;16960;49.404;8.248;2023-05-16T01:26:18;22.10;46.70
30148;DHT22;16960;49.404;8.248;2023-05-16T01:28:48;22.10;46.70
30148;DHT22;16960;49.404;8.248;2023-05-16T01:31:15;22.10;46.70
30148;DHT22;16960;49.404;8.248;2023-05-16T01:33:42;22.10;46.70
30148;DHT22;16960;49.404;8.248;2023-05-16T01:36:13;22.00;46.60
30148;DHT22;16960;49.404;8.248;2023-05-16T01:38:47;22.10;46.70
30148;DHT22;16960;49.404;8.248;2023-05-16T01:41:23;22.00;46.60
30148;DHT22;16960;49.404;8.248;2023-05-16T01:43:54;22.00;46.60
30148;DHT22;16960;49.404;8.248;2023-05-16T01:46:26;22.00;46.60
30148;DHT22;16960;49.404;8.248;2023-05-16T01:49:01;22.00;46.70
30148;DHT22;16960;49.404;8.248;2023-05-16T01:51:31;22.00;46.70
30148;DHT22;16960;49.404;8.248;2023-05-16T01:54:04;22.00;46.70
30148;DHT22;16960;49.404;8.248;2023-05-16T01:56:33;22.00;46.70
30148;DHT22;16960;49.404;8.248;2023-05-16T01:59:03;22.00;46.70
30148;DHT22;16960;49.404;8.248;2023-05-16T02:01:30;22.00;46.70
30148;DHT22;16960;49.404;8.248;2023-05-16T02:03:57;22.00;46.70
30148;DHT22;16960;49.404;8.248;2023-05-16T02:06:24;22.00;46.70
30148;DHT22;16960;49.404;8.248;2023-05-16T02:08:51;22.00;46.70
30148;DHT22;16960;49.404;8.248;2023-05-16T02:11:18;22.00;46.70
30148;DHT22;16960;49.404;8.248;2023-05-16T02:13:48;22.00;46.70
30148;DHT22;16960;49.404;8.248;2023-05-16T02:16:14;22.00;46.70
30148;DHT22;16960;49.404;8.248;2023-05-16T02:18:41;22.00;46.70
30148;DHT22;16960;49.404;8.248;2023-05-16T02:21:09;22.00;46.70
30148;DHT22;16960;49.404;8.248;2023-05-16T02:23:36;21.90;46.70
30148;DHT22;16960;49.404;8.248;2023-05-16T02:26:03;21.90;46.70
30148;DHT22;16960;49.404;8.248;2023-05-16T02:28:31;21.90;46.80
30148;DHT22;16960;49.404;8.248;2023-05-16T02:30:59;21.90;46.70
30148;DHT22;16960;49.404;8.248;2023-05-16T02:33:28;21.90;46.70
30148;DHT22;16960;49.404;8.248;2023-05-16T02:35:55;21.90;46.70
30148;DHT22;16960;49.404;8.248;2023-05-16T02:38:22;21.90;46.80
30148;DHT22;16960;49.404;8.248;2023-05-16T02:40:49;21.90;46.70
30148;DHT22;16960;49.404;8.248;2023-05-16T02:43:16;21.90;46.70
30148;DHT22;16960;49.404;8.248;2023-05-16T02:45:43;21.90;46.70
30148;DHT22;16960;49.404;8.248;2023-05-16T02:48:11;21.90;46.70
30148;DHT22;16960;49.404;8.248;2023-05-16T02:50:38;21.80;46.60
30148;DHT22;16960;49.404;8.248;2023-05-16T02:53:05;21.80;46.60
30148;DHT22;16960;49.404;8.248;2023-05-16T02:55:32;21.80;46.60
30148;DHT22;16960;49.404;8.248;2023-05-16T02:57:59;21.80;46.60
30148;DHT22;16960;49.404;8.248;2023-05-16T03:00:26;21.80;46.60
30148;DHT22;16960;49.404;8.248;2023-05-16T03:02:53;21.80;46.80
30148;DHT22;16960;49.404;8.248;2023-05-16T03:05:21;21.80;46.60
30148;DHT22;16960;49.404;8.248;2023-05-16T03:07:48;21.80;46.60
30148;DHT22;16960;49.404;8.248;2023-05-16T03:10:15;21.80;46.60
30148;DHT22;16960;49.404;8.248;2023-05-16T03:12:42;21.80;46.60
30148;DHT22;16960;49.404;8.248;2023-05-16T03:15:10;21.70;46.60
30148;DHT22;16960;49.404;8.248;2023-05-16T03:17:37;21.70;46.70
30148;DHT22;16960;49.404;8.248;2023-05-16T03:20:05;21.80;46.70
30148;DHT22;16960;49.404;8.248;2023-05-16T03:22:35;21.80;46.70
30148;DHT22;16960;49.404;8.248;2023-05-16T03:25:02;21.80;46.80
30148;DHT22;16960;49.404;8.248;2023-05-16T03:27:29;21.70;46.70
30148;DHT22;16960;49.404;8.248;2023-05-16T03:29:56;21.70;46.70
30148;DHT22;16960;49.404;8.248;2023-05-16T03:32:23;21.70;46.70
30148;DHT22;16960;49.404;8.248;2023-05-16T03:34:50;21.70;46.70
30148;DHT22;16960;49.404;8.248;2023-05-16T03:37:17;21.70;46.70
30148;DHT22;16960;49.404;8.248;2023-05-16T03:39:45;21.70;46.80
30148;DHT22;16960;49.404;8.248;2023-05-16T03:42:12;21.70;46.80
30148;DHT22;16960;49.404;8.248;2023-05-16T03:44:39;21.70;46.70
30148;DHT22;16960;49.404;8.248;2023-05-16T03:47:06;21.70;46.80
30148;DHT22;16960;49.404;8.248;2023-05-16T03:49:33;21.70;46.70
30148;DHT22;16960;49.404;8.248;2023-05-16T03:52:01;21.70;46.80
30148;DHT22;16960;49.404;8.248;2023-05-16T03:54:28;21.70;46.70
30148;DHT22;16960;49.404;8.248;2023-05-16T03:56:56;21.70;46.70
30148;DHT22;16960;49.404;8.248;2023-05-16T03:59:23;21.70;46.70
30148;DHT22;16960;49.404;8.248;2023-05-16T04:01:50;21.70;46.80
30148;DHT22;16960;49.404;8.248;2023-05-16T04:04:17;21.60;46.60
30148;DHT22;16960;49.404;8.248;2023-05-16T04:06:44;21.70;46.80
30148;DHT22;16960;49.404;8.248;2023-05-16T04:09:11;21.60;46.60
30148;DHT22;16960;49.404;8.248;2023-05-16T04:11:38;21.60;46.60
30148;DHT22;16960;49.404;8.248;2023-05-16T04:14:06;21.60;46.60
30148;DHT22;16960;49.404;8.248;2023-05-16T04:16:33;21.60;46.60
30148;DHT22;16960;49.404;8.248;2023-05-16T04:19:00;21.60;46.60
30148;DHT22;16960;49.404;8.248;2023-05-16T04:21:28;21.60;46.60
30148;DHT22;16960;49.404;8.248;2023-05-16T04:23:55;21.60;46.60
30148;DHT22;16960;49.404;8.248;2023-05-16T04:26:23;21.60;46.60
30148;DHT22;16960;49.404;8.248;2023-05-16T04:28:52;21.60;46.60
30148;DHT22;16960;49.404;8.248;2023-05-16T04:31:21;21.60;46.60
30148;DHT22;16960;49.404;8.248;2023-05-16T04:33:49;21.60;46.60
30148;DHT22;16960;49.404;8.248;2023-05-16T04:36:15;21.60;46.60
30148;DHT22;16960;49.404;8.248;2023-05-16T04:38:42;21.50;46.60
30148;DHT22;16960;49.404;8.248;2023-05-16T04:41:11;21.50;46.60
30148;DHT22;16960;49.404;8.248;2023-05-16T04:43:38;21.50;46.60
30148;DHT22;16960;49.404;8.248;2023-05-16T04:46:06;21.50;46.60
30148;DHT22;16960;49.404;8.248;2023-05-16T04:48:35;21.50;46.60
30148;DHT22;16960;49.404;8.248;2023-05-16T04:51:03;21.50;46.60
30148;DHT22;16960;49.404;8.248;2023-05-16T04:53:30;21.50;46.60
30148;DHT22;16960;49.404;8.248;2023-05-16T04:55:57;21.50;46.60
30148;DHT22;16960;49.404;8.248;2023-05-16T04:58:24;21.50;46.60
30148;DHT22;16960;49.404;8.248;2023-05-16T05:00:51;21.50;46.60
30148;DHT22;16960;49.404;8.248;2023-05-16T05:03:18;21.50;46.60
30148;DHT22;16960;49.404;8.248;2023-05-16T05:05:46;21.50;46.60
30148;DHT22;16960;49.404;8.248;2023-05-16T05:08:13;21.50;46.60
30148;DHT22;16960;49.404;8.248;2023-05-16T05:10:41;21.50;46.60
30148;DHT22;16960;49.404;8.248;2023-05-16T05:13:09;21.50;46.60
30148;DHT22;16960;49.404;8.248;2023-05-16T05:15:36;21.50;46.60
30148;DHT22;16960;49.404;8.248;2023-05-16T05:18:03;21.50;46.60
30148;DHT22;16960;49.404;8.248;2023-05-16T05:20:30;21.50;46.60
30148;DHT22;16960;49.404;8.248;2023-05-16T05:22:58;21.50;46.70
30148;DHT22;16960;49.404;8.248;2023-05-16T05:25:25;21.50;46.70
30148;DHT22;16960;49.404;8.248;2023-05-16T05:27:52;21.50;46.60
30148;DHT22;16960;49.404;8.248;2023-05-16T05:30:19;21.50;46.60
30148;DHT22;16960;49.404;8.248;2023-05-16T05:32:46;21.50;46.60
30148;DHT22;16960;49.404;8.248;2023-05-16T05:35:13;21.50;46.60
30148;DHT22;16960;49.404;8.248;2023-05-16T05:37:40;21.50;46.60
30148;DHT22;16960;49.404;8.248;2023-05-16T05:40:09;21.50;46.60
30148;DHT22;16960;49.404;8.248;2023-05-16T05:42:36;21.50;46.60
30148;DHT22;16960;49.404;8.248;2023-05-16T05:45:03;21.50;46.60
30148;DHT22;16960;49.404;8.248;2023-05-16T05:47:32;21.50;46.60
30148;DHT22;16960;49.404;8.248;2023-05-16T05:49:59;21.50;46.70
30148;DHT22;16960;49.404;8.248;2023-05-16T05:52:27;21.50;46.80
30148;DHT22;16960;49.404;8.248;2023-05-16T05:54:54;21.50;47.30
30148;DHT22;16960;49.404;8.248;2023-05-16T05:57:22;21.60;47.20
30148;DHT22;16960;49.404;8.248;2023-05-16T05:59:49;21.60;47.20
30148;DHT22;16960;49.404;8.248;2023-05-16T06:02:16;21.60;47.00
30148;DHT22;16960;49.404;8.248;2023-05-16T06:04:43;21.70;47.00
30148;DHT22;16960;49.404;8.248;2023-05-16T06:07:10;21.70;46.90
30148;DHT22;16960;49.404;8.248;2023-05-16T06:09:37;21.80;46.70
30148;DHT22;16960;49.404;8.248;2023-05-16T06:12:04;21.80;46.60
30148;DHT22;16960;49.404;8.248;2023-05-16T06:14:33;21.80;46.50
30148;DHT22;16960;49.404;8.248;2023-05-16T06:17:00;21.90;46.50
30148;DHT22;16960;49.404;8.248;2023-05-16T06:19:27;21.90;46.40
30148;DHT22;16960;49.404;8.248;2023-05-16T06:21:54;21.90;46.30
30148;DHT22;16960;49.404;8.248;2023-05-16T06:24:21;21.90;46.20
30148;DHT22;16960;49.404;8.248;2023-05-16T06:26:48;22.00;46.20
30148;DHT22;16960;49.404;8.248;2023-05-16T06:29:15;22.00;46.20
30148;DHT22;16960;49.404;8.248;2023-05-16T06:31:44;22.00;46.10
30148;DHT22;16960;49.404;8.248;2023-05-16T06:34:12;22.00;46.00
30148;DHT22;16960;49.404;8.248;2023-05-16T06:36:39;22.10;46.80
30148;DHT22;16960;49.404;8.248;2023-05-16T06:39:06;22.00;46.60
30148;DHT22;16960;49.404;8.248;2023-05-16T06:41:33;22.10;46.00
30148;DHT22;16960;49.404;8.248;2023-05-16T06:44:00;22.10;45.90
30148;DHT22;16960;49.404;8.248;2023-05-16T06:46:27;22.10;45.70
30148;DHT22;16960;49.404;8.248;2023-05-16T06:48:55;22.10;45.70
30148;DHT22;16960;49.404;8.248;2023-05-16T06:51:22;22.10;45.50
30148;DHT22;16960;49.404;8.248;2023-05-16T06:53:49;22.10;45.40
30148;DHT22;16960;49.404;8.248;2023-05-16T06:56:16;22.10;45.30
30148;DHT22;16960;49.404;8.248;2023-05-16T06:58:43;22.20;45.20
30148;DHT22;16960;49.404;8.248;2023-05-16T07:01:10;22.20;45.20
30148;DHT22;16960;49.404;8.248;2023-05-16T07:03:37;22.20;45.10
30148;DHT22;16960;49.404;8.248;2023-05-16T07:06:05;22.20;45.10
30148;DHT22;16960;49.404;8.248;2023-05-16T07:08:33;22.20;44.90
30148;DHT22;16960;49.404;8.248;2023-05-16T07:11:01;22.30;44.90
30148;DHT22;16960;49.404;8.248;2023-05-16T07:13:28;22.30;44.80
30148;DHT22;16960;49.404;8.248;2023-05-16T07:15:55;22.30;44.70
30148;DHT22;16960;49.404;8.248;2023-05-16T07:18:22;22.30;44.60
30148;DHT22;16960;49.404;8.248;2023-05-16T07:20:49;22.40;44.50
30148;DHT22;16960;49.404;8.248;2023-05-16T07:23:18;22.40;44.50
30148;DHT22;16960;49.404;8.248;2023-05-16T07:25:45;22.40;44.40
30148;DHT22;16960;49.404;8.248;2023-05-16T07:28:11;22.40;44.40
30148;DHT22;16960;49.404;8.248;2023-05-16T07:30:38;22.40;44.30
30148;DHT22;16960;49.404;8.248;2023-05-16T07:33:05;22.40;44.20
30148;DHT22;16960;49.404;8.248;2023-05-16T07:35:32;22.40;44.20
30148;DHT22;16960;49.404;8.248;2023-05-16T07:37:59;22.40;44.00
30148;DHT22;16960;49.404;8.248;2023-05-16T07:40:28;22.40;44.00
30148;DHT22;16960;49.404;8.248;2023-05-16T07:42:55;22.40;44.00
30148;DHT22;16960;49.404;8.248;2023-05-16T07:45:22;22.50;44.00
30148;DHT22;16960;49.404;8.248;2023-05-16T07:47:49;22.50;44.00
30148;DHT22;16960;49.404;8.248;2023-05-16T07:50:16;22.50;44.00
30148;DHT22;16960;49.404;8.248;2023-05-16T07:52:43;22.50;44.00
30148;DHT22;16960;49.404;8.248;2023-05-16T07:55:09;22.50;44.00
30148;DHT22;16960;49.404;8.248;2023-05-16T07:57:38;22.50;43.90
30148;DHT22;16960;49.404;8.248;2023-05-16T08:00:06;22.60;43.90
30148;DHT22;16960;49.404;8.248;2023-05-16T08:02:34;22.50;43.80
30148;DHT22;16960;49.404;8.248;2023-05-16T08:05:01;22.50;43.80
30148;DHT22;16960;49.404;8.248;2023-05-16T08:07:28;22.60;43.90
30148;DHT22;16960;49.404;8.248;2023-05-16T08:09:55;22.60;43.80
30148;DHT22;16960;49.404;8.248;2023-05-16T08:12:23;22.60;43.70
30148;DHT22;16960;49.404;8.248;2023-05-16T08:14:51;22.60;43.70
30148;DHT22;16960;49.404;8.248;2023-05-16T08:17:18;22.60;43.70
30148;DHT22;16960;49.404;8.248;2023-05-16T08:19:45;22.50;43.70
30148;DHT22;16960;49.404;8.248;2023-05-16T08:22:11;22.60;43.70
30148;DHT22;16960;49.404;8.248;2023-05-16T08:24:38;22.60;43.60
30148;DHT22;16960;49.404;8.248;2023-05-16T08:27:05;22.60;43.60
30148;DHT22;16960;49.404;8.248;2023-05-16T08:29:33;22.60;43.60
30148;DHT22;16960;49.404;8.248;2023-05-16T08:32:01;22.60;43.50
30148;DHT22;16960;49.404;8.248;2023-05-16T08:34:30;22.60;43.50
30148;DHT22;16960;49.404;8.248;2023-05-16T08:36:57;22.60;43.40
30148;DHT22;16960;49.404;8.248;2023-05-16T08:39:24;22.60;43.40
30148;DHT22;16960;49.404;8.248;2023-05-16T08:41:51;22.60;43.40
30148;DHT22;16960;49.404;8.248;2023-05-16T08:44:18;22.60;43.40
30148;DHT22;16960;49.404;8.248;2023-05-16T08:46:50;22.60;43.40
30148;DHT22;16960;49.404;8.248;2023-05-16T08:49:19;22.50;43.30
30148;DHT22;16960;49.404;8.248;2023-05-16T08:51:47;22.50;43.30
30148;DHT22;16960;49.404;8.248;2023-05-16T08:54:15;22.60;43.30
30148;DHT22;16960;49.404;8.248;2023-05-16T08:56:43;22.60;43.40
30148;DHT22;16960;49.404;8.248;2023-05-16T08:59:11;22.60;43.30
30148;DHT22;16960;49.404;8.248;2023-05-16T09:01:38;22.60;43.20
30148;DHT22;16960;49.404;8.248;2023-05-16T09:04:06;22.50;43.20
30148;DHT22;16960;49.404;8.248;2023-05-16T09:06:35;22.60;43.20
30148;DHT22;16960;49.404;8.248;2023-05-16T09:09:02;22.60;43.20
30148;DHT22;16960;49.404;8.248;2023-05-16T09:11:32;22.60;43.20
30148;DHT22;16960;49.404;8.248;2023-05-16T09:13:59;22.60;43.20
30148;DHT22;16960;49.404;8.248;2023-05-16T09:16:26;22.60;43.20
30148;DHT22;16960;49.404;8.248;2023-05-16T09:18:54;22.60;43.20
30148;DHT22;16960;49.404;8.248;2023-05-16T09:21:26;22.60;43.10
30148;DHT22;16960;49.404;8.248;2023-05-16T09:23:55;22.60;43.10
30148;DHT22;16960;49.404;8.248;2023-05-16T09:26:22;22.60;43.10
30148;DHT22;16960;49.404;8.248;2023-05-16T09:28:52;22.60;43.10
30148;DHT22;16960;49.404;8.248;2023-05-16T09:31:20;22.60;43.10
30148;DHT22;16960;49.404;8.248;2023-05-16T09:33:47;22.60;43.10
30148;DHT22;16960;49.404;8.248;2023-05-16T09:36:15;22.60;43.00
30148;DHT22;16960;49.404;8.248;2023-05-16T09:38:42;22.60;43.10
30148;DHT22;16960;49.404;8.248;2023-05-16T09:41:11;22.70;43.20
30148;DHT22;16960;49.404;8.248;2023-05-16T09:43:39;22.60;43.10
30148;DHT22;16960;49.404;8.248;2023-05-16T09:46:07;22.60;43.10
30148;DHT22;16960;49.404;8.248;2023-05-16T09:48:34;22.70;43.10
30148;DHT22;16960;49.404;8.248;2023-05-16T09:51:04;22.60;42.90
30148;DHT22;16960;49.404;8.248;2023-05-16T09:53:32;22.70;43.00
30148;DHT22;16960;49.404;8.248;2023-05-16T09:56:00;22.70;43.00
30148;DHT22;16960;49.404;8.248;2023-05-16T09:58:30;22.70;42.90
30148;DHT22;16960;49.404;8.248;2023-05-16T10:00:58;22.70;42.90
30148;DHT22;16960;49.404;8.248;2023-05-16T10:03:25;22.70;43.00
30148;DHT22;16960;49.404;8.248;2023-05-16T10:05:52;22.70;43.00
30148;DHT22;16960;49.404;8.248;2023-05-16T10:08:21;22.70;42.90
30148;DHT22;16960;49.404;8.248;2023-05-16T10:10:50;22.70;42.90
30148;DHT22;16960;49.404;8.248;2023-05-16T10:13:20;22.70;42.90
30148;DHT22;16960;49.404;8.248;2023-05-16T10:15:49;22.70;42.90
30148;DHT22;16960;49.404;8.248;2023-05-16T10:18:17;22.70;42.90
30148;DHT22;16960;49.404;8.248;2023-05-16T10:20:46;22.60;42.70
30148;DHT22;16960;49.404;8.248;2023-05-16T10:23:16;22.70;42.80
30148;DHT22;16960;49.404;8.248;2023-05-16T10:25:45;22.70;42.70
30148;DHT22;16960;49.404;8.248;2023-05-16T10:28:12;22.60;42.60
30148;DHT22;16960;49.404;8.248;2023-05-16T10:30:42;22.60;42.60
30148;DHT22;16960;49.404;8.248;2023-05-16T10:33:12;22.70;42.70
30148;DHT22;16960;49.404;8.248;2023-05-16T10:35:39;22.60;42.60
30148;DHT22;16960;49.404;8.248;2023-05-16T10:38:07;22.60;42.60
30148;DHT22;16960;49.404;8.248;2023-05-16T10:40:36;22.60;42.50
30148;DHT22;16960;49.404;8.248;2023-05-16T10:43:06;22.60;42.50
30148;DHT22;16960;49.404;8.248;2023-05-16T10:45:33;22.60;42.50
30148;DHT22;16960;49.404;8.248;2023-05-16T10:48:02;22.60;42.50
30148;DHT22;16960;49.404;8.248;2023-05-16T10:50:35;22.60;42.50
30148;DHT22;16960;49.404;8.248;2023-05-16T10:53:17;22.50;42.50
30148;DHT22;16960;49.404;8.248;2023-05-16T10:55:49;22.50;42.50
30148;DHT22;16960;49.404;8.248;2023-05-16T10:58:24;22.50;42.50
30148;DHT22;16960;49.404;8.248;2023-05-16T11:01:15;22.50;42.50
30148;DHT22;16960;49.404;8.248;2023-05-16T11:04:04;22.50;42.50
30148;DHT22;16960;49.404;8.248;2023-05-16T11:06:33;22.50;42.50
30148;DHT22;16960;49.404;8.248;2023-05-16T11:09:04;22.50;42.50
30148;DHT22;16960;49.404;8.248;2023-05-16T11:11:42;22.50;42.50
30148;DHT22;16960;49.404;8.248;2023-05-16T11:14:19;22.50;42.50
30148;DHT22;16960;49.404;8.248;2023-05-16T11:16:51;22.50;42.50
30148;DHT22;16960;49.404;8.248;2023-05-16T11:19:41;22.50;42.50
30148;DHT22;16960;49.404;8.248;2023-05-16T11:22:12;22.50;42.50
30148;DHT22;16960;49.404;8.248;2023-05-16T11:24:52;22.40;42.40
30148;DHT22;16960;49.404;8.248;2023-05-16T11:27:27;22.50;42.50
30148;DHT22;16960;49.404;8.248;2023-05-16T11:29:58;22.50;42.50
30148;DHT22;16960;49.404;8.248;2023-05-16T11:32:26;22.50;42.40
30148;DHT22;16960;49.404;8.248;2023-05-16T11:34:53;22.50;42.50
30148;DHT22;16960;49.404;8.248;2023-05-16T11:37:21;22.50;42.50
30148;DHT22;16960;49.404;8.248;2023-05-16T11:39:48;22.50;42.40
30148;DHT22;16960;49.404;8.248;2023-05-16T11:42:15;22.50;42.40
30148;DHT22;16960;49.404;8.248;2023-05-16T11:44:43;22.50;42.40
30148;DHT22;16960;49.404;8.248;2023-05-16T11:47:10;22.50;42.40
30148;DHT22;16960;49.404;8.248;2023-05-16T11:49:38;22.50;42.30
30148;DHT22;16960;49.404;8.248;2023-05-16T11:52:07;22.40;42.20
30148;DHT22;16960;49.404;8.248;2023-05-16T11:54:36;22.50;42.30
30148;DHT22;16960;49.404;8.248;2023-05-16T11:57:04;22.50;42.30
30148;DHT22;16960;49.404;8.248;2023-05-16T11:59:31;22.50;42.20
30148;DHT22;16960;49.404;8.248;2023-05-16T12:02:02;22.50;42.20
30148;DHT22;16960;49.404;8.248;2023-05-16T12:04:31;22.50;42.20
30148;DHT22;16960;49.404;8.248;2023-05-16T12:06:59;22.50;42.20
30148;DHT22;16960;49.404;8.248;2023-05-16T12:09:27;22.40;40.70
30148;DHT22;16960;49.404;8.248;2023-05-16T12:11:55;22.40;40.80
30148;DHT22;16960;49.404;8.248;2023-05-16T12:14:23;22.40;41.30
30148;DHT22;16960;49.404;8.248;2023-05-16T12:16:51;22.40;41.60
30148;DHT22;16960;49.404;8.248;2023-05-16T12:19:19;22.40;41.50
30148;DHT22;16960;49.404;8.248;2023-05-16T12:21:47;22.40;41.30
30148;DHT22;16960;49.404;8.248;2023-05-16T12:24:14;22.40;41.20
30148;DHT22;16960;49.404;8.248;2023-05-16T12:26:42;22.40;41.30
30148;DHT22;16960;49.404;8.248;2023-05-16T12:29:10;22.40;41.20
30148;DHT22;16960;49.404;8.248;2023-05-16T12:31:39;22.40;41.30
30148;DHT22;16960;49.404;8.248;2023-05-16T12:34:16;22.40;41.30
30148;DHT22;16960;49.404;8.248;2023-05-16T12:36:45;22.40;41.30
30148;DHT22;16960;49.404;8.248;2023-05-16T12:39:16;22.40;41.40
30148;DHT22;16960;49.404;8.248;2023-05-16T12:41:44;22.40;41.40
30148;DHT22;16960;49.404;8.248;2023-05-16T12:44:13;22.40;41.40
30148;DHT22;16960;49.404;8.248;2023-05-16T12:46:43;22.40;41.40
30148;DHT22;16960;49.404;8.248;2023-05-16T12:49:10;22.40;41.40
30148;DHT22;16960;49.404;8.248;2023-05-16T12:51:38;22.40;41.40
30148;DHT22;16960;49.404;8.248;2023-05-16T12:54:09;22.40;41.40
30148;DHT22;16960;49.404;8.248;2023-05-16T12:56:37;22.40;41.40
30148;DHT22;16960;49.404;8.248;2023-05-16T12:59:04;22.50;41.40
30148;DHT22;16960;49.404;8.248;2023-05-16T13:01:33;22.40;42.00
30148;DHT22;16960;49.404;8.248;2023-05-16T13:04:00;22.50;41.40
30148;DHT22;16960;49.404;8.248;2023-05-16T13:06:28;22.50;41.30
30148;DHT22;16960;49.404;8.248;2023-05-16T13:08:55;22.50;41.30
30148;DHT22;16960;49.404;8.248;2023-05-16T13:11:23;22.50;41.30
30148;DHT22;16960;49.404;8.248;2023-05-16T13:13:50;22.50;41.20
30148;DHT22;16960;49.404;8.248;2023-05-16T13:16:18;22.50;41.10
30148;DHT22;16960;49.404;8.248;2023-05-16T13:18:46;22.50;41.10
30148;DHT22;16960;49.404;8.248;2023-05-16T13:21:13;22.50;41.10
30148;DHT22;16960;49.404;8.248;2023-05-16T13:23:40;22.60;41.00
30148;DHT22;16960;49.404;8.248;2023-05-16T13:26:07;22.50;41.00
30148;DHT22;16960;49.404;8.248;2023-05-16T13:28:34;22.60;41.00
30148;DHT22;16960;49.404;8.248;2023-05-16T13:31:02;22.60;40.90
30148;DHT22;16960;49.404;8.248;2023-05-16T13:33:28;22.60;40.90
30148;DHT22;16960;49.404;8.248;2023-05-16T13:35:57;22.70;40.90
30148;DHT22;16960;49.404;8.248;2023-05-16T13:38:24;22.70;41.00
30148;DHT22;16960;49.404;8.248;2023-05-16T13:40:51;22.70;40.90
30148;DHT22;16960;49.404;8.248;2023-05-16T13:43:18;22.70;40.90
30148;DHT22;16960;49.404;8.248;2023-05-16T13:45:44;22.70;40.90
30148;DHT22;16960;49.404;8.248;2023-05-16T13:48:11;22.70;40.50
30148;DHT22;16960;49.404;8.248;2023-05-16T13:50:38;22.80;40.60
30148;DHT22;16960;49.404;8.248;2023-05-16T13:53:07;22.80;40.70
30148;DHT22;16960;49.404;8.248;2023-05-16T13:55:33;22.80;40.70
30148;DHT22;16960;49.404;8.248;2023-05-16T13:58:01;22.80;40.70
30148;DHT22;16960;49.404;8.248;2023-05-16T14:00:28;22.90;40.80
30148;DHT22;16960;49.404;8.248;2023-05-16T14:02:55;22.90;40.70
30148;DHT22;16960;49.404;8.248;2023-05-16T14:05:22;22.90;40.70
30148;DHT22;16960;49.404;8.248;2023-05-16T14:07:49;22.90;40.70
30148;DHT22;16960;49.404;8.248;2023-05-16T14:10:18;23.00;40.60
30148;DHT22;16960;49.404;8.248;2023-05-16T14:12:45;23.00;40.60
30148;DHT22;16960;49.404;8.248;2023-05-16T14:15:12;23.00;40.50
30148;DHT22;16960;49.404;8.248;2023-05-16T14:17:39;23.10;40.50
30148;DHT22;16960;49.404;8.248;2023-05-16T14:20:06;23.10;40.40
30148;DHT22;16960;49.404;8.248;2023-05-16T14:22:35;23.20;40.30
30148;DHT22;16960;49.404;8.248;2023-05-16T14:25:03;23.10;40.40
30148;DHT22;16960;49.404;8.248;2023-05-16T14:27:32;23.20;40.20
30148;DHT22;16960;49.404;8.248;2023-05-16T14:29:59;23.20;40.30
30148;DHT22;16960;49.404;8.248;2023-05-16T14:32:26;23.20;40.20
30148;DHT22;16960;49.404;8.248;2023-05-16T14:34:53;23.30;41.00
30148;DHT22;16960;49.404;8.248;2023-05-16T14:37:20;23.40;40.20
30148;DHT22;16960;49.404;8.248;2023-05-16T14:39:47;23.40;40.00
30148;DHT22;16960;49.404;8.248;2023-05-16T14:42:15;23.40;39.80
30148;DHT22;16960;49.404;8.248;2023-05-16T14:44:45;23.40;39.70
30148;DHT22;16960;49.404;8.248;2023-05-16T14:47:11;23.40;39.70
30148;DHT22;16960;49.404;8.248;2023-05-16T14:49:39;23.50;39.70
30148;DHT22;16960;49.404;8.248;2023-05-16T14:52:06;23.50;39.50
30148;DHT22;16960;49.404;8.248;2023-05-16T14:54:36;23.50;39.50
30148;DHT22;16960;49.404;8.248;2023-05-16T14:57:03;23.50;39.50
30148;DHT22;16960;49.404;8.248;2023-05-16T14:59:30;23.50;39.50
30148;DHT22;16960;49.404;8.248;2023-05-16T15:01:59;23.50;39.30
30148;DHT22;16960;49.404;8.248;2023-05-16T15:04:26;23.50;39.30
30148;DHT22;16960;49.404;8.248;2023-05-16T15:06:53;23.50;39.30
30148;DHT22;16960;49.404;8.248;2023-05-16T15:09:20;23.50;39.10
30148;DHT22;16960;49.404;8.248;2023-05-16T15:11:47;23.50;38.90
30148;DHT22;16960;49.404;8.248;2023-05-16T15:14:14;23.60;39.00
30148;DHT22;16960;49.404;8.248;2023-05-16T15:16:42;23.60;39.00
30148;DHT22;16960;49.404;8.248;2023-05-16T15:19:10;23.60;38.90
30148;DHT22;16960;49.404;8.248;2023-05-16T15:21:37;23.60;38.80
30148;DHT22;16960;49.404;8.248;2023-05-16T15:24:05;23.60;38.70
30148;DHT22;16960;49.404;8.248;2023-05-16T15:26:32;23.70;38.70
30148;DHT22;16960;49.404;8.248;2023-05-16T15:29:00;23.70;38.10
30148;DHT22;16960;49.404;8.248;2023-05-16T15:31:36;23.70;38.50
30148;DHT22;16960;49.404;8.248;2023-05-16T15:34:11;23.70;38.60
30148;DHT22;16960;49.404;8.248;2023-05-16T15:36:38;23.70;38.70
30148;DHT22;16960;49.404;8.248;2023-05-16T15:39:05;23.70;38.70
30148;DHT22;16960;49.404;8.248;2023-05-16T15:41:32;23.70;38.70
30148;DHT22;16960;49.404;8.248;2023-05-16T15:43:59;23.80;38.50
30148;DHT22;16960;49.404;8.248;2023-05-16T15:46:26;23.80;38.30
30148;DHT22;16960;49.404;8.248;2023-05-16T15:48:54;23.80;38.30
30148;DHT22;16960;49.404;8.248;2023-05-16T15:51:23;23.80;38.20
30148;DHT22;16960;49.404;8.248;2023-05-16T15:53:51;23.80;38.20
30148;DHT22;16960;49.404;8.248;2023-05-16T15:56:18;23.80;38.10